sensor_id;sensor_type;location;lat;lon;timestamp;P1;durP1;ratioP1;P2;durP2;ratioP2
84796;SDS011;75028;51.374;21.078;2024-03-23T00:54:23;24.40;;;12.02;;
84796;SDS011;75028;51.374;21.078;2024-03-23T00:56:49;23.67;;;11.88;;
84796;SDS011;75028;51.374;21.078;2024-03-23T00:59:15;23.88;;;12.48;;
84796;SDS011;75028;51.374;21.078;2024-03-23T01:01:41;28.67;;;13.23;;
84796;SDS011;75028;51.374;21.078;2024-03-23T01:04:07;25.38;;;12.68;;
84796;SDS011;75028;51.374;21.078;2024-03-23T01:06:33;28.25;;;13.00;;
84796;SDS011;75028;51.374;21.078;2024-03-23T01:08:59;27.02;;;13.25;;
84796;SDS011;75028;51.374;21.078;2024-03-23T01:11:25;24.60;;;13.55;;
84796;SDS011;75028;51.374;21.078;2024-03-23T01:13:53;24.25;;;11.80;;
84796;SDS011;75028;51.374;21.078;2024-03-23T01:16:21;31.30;;;14.90;;
84796;SDS011;75028;51.374;21.078;2024-03-23T01:21:13;27.00;;;13.57;;
84796;SDS011;75028;51.374;21.078;2024-03-23T01:26:05;25.83;;;13.18;;
84796;SDS011;75028;51.374;21.078;2024-03-23T01:28:31;26.50;;;14.07;;
84796;SDS011;75028;51.374;21.078;2024-03-23T01:30:57;30.05;;;14.18;;
84796;SDS011;75028;51.374;21.078;2024-03-23T01:33:23;29.88;;;13.07;;
84796;SDS011;75028;51.374;21.078;2024-03-23T01:35:49;28.67;;;14.52;;
84796;SDS011;75028;51.374;21.078;2024-03-23T01:38:15;25.27;;;12.52;;
84796;SDS011;75028;51.374;21.078;2024-03-23T01:40:41;26.80;;;13.15;;
84796;SDS011;75028;51.374;21.078;2024-03-23T01:45:33;28.75;;;12.15;;
84796;SDS011;75028;51.374;21.078;2024-03-23T01:48:01;25.77;;;11.77;;
84796;SDS011;75028;51.374;21.078;2024-03-23T01:50:28;33.63;;;13.73;;
84796;SDS011;75028;51.374;21.078;2024-03-23T01:52:59;27.67;;;15.32;;
84796;SDS011;75028;51.374;21.078;2024-03-23T01:55:28;25.70;;;12.60;;
84796;SDS011;75028;51.374;21.078;2024-03-23T01:57:56;25.33;;;12.57;;
84796;SDS011;75028;51.374;21.078;2024-03-23T02:00:23;25.88;;;13.13;;
84796;SDS011;75028;51.374;21.078;2024-03-23T02:02:49;30.63;;;13.45;;
84796;SDS011;75028;51.374;21.078;2024-03-23T02:05:15;26.08;;;12.90;;
84796;SDS011;75028;51.374;21.078;2024-03-23T02:07:42;25.10;;;11.52;;
84796;SDS011;75028;51.374;21.078;2024-03-23T02:10:11;27.45;;;12.20;;
84796;SDS011;75028;51.374;21.078;2024-03-23T02:12:40;25.85;;;11.70;;
84796;SDS011;75028;51.374;21.078;2024-03-23T02:15:06;30.52;;;12.35;;
84796;SDS011;75028;51.374;21.078;2024-03-23T02:17:34;25.73;;;11.68;;
84796;SDS011;75028;51.374;21.078;2024-03-23T02:20:02;28.63;;;12.38;;
84796;SDS011;75028;51.374;21.078;2024-03-23T02:22:38;20.98;;;11.05;;
84796;SDS011;75028;51.374;21.078;2024-03-23T02:25:04;27.75;;;12.05;;
84796;SDS011;75028;51.374;21.078;2024-03-23T02:27:31;26.38;;;11.85;;
84796;SDS011;75028;51.374;21.078;2024-03-23T02:29:58;27.08;;;13.10;;
84796;SDS011;75028;51.374;21.078;2024-03-23T02:32:24;23.23;;;11.60;;
84796;SDS011;75028;51.374;21.078;2024-03-23T02:34:50;27.67;;;11.85;;
84796;SDS011;75028;51.374;21.078;2024-03-23T02:39:42;22.98;;;10.38;;
84796;SDS011;75028;51.374;21.078;2024-03-23T02:42:08;27.23;;;12.02;;
84796;SDS011;75028;51.374;21.078;2024-03-23T02:44:34;21.92;;;10.65;;
84796;SDS011;75028;51.374;21.078;2024-03-23T02:47:00;23.17;;;11.00;;
84796;SDS011;75028;51.374;21.078;2024-03-23T02:49:26;26.90;;;11.88;;
84796;SDS011;75028;51.374;21.078;2024-03-23T02:54:18;23.58;;;10.93;;
84796;SDS011;75028;51.374;21.078;2024-03-23T02:56:44;21.17;;;10.77;;
84796;SDS011;75028;51.374;21.078;2024-03-23T02:59:10;23.95;;;10.18;;
84796;SDS011;75028;51.374;21.078;2024-03-23T03:01:36;25.33;;;11.32;;
84796;SDS011;75028;51.374;21.078;2024-03-23T03:04:02;26.08;;;11.20;;
84796;SDS011;75028;51.374;21.078;2024-03-23T03:06:29;24.65;;;10.65;;
84796;SDS011;75028;51.374;21.078;2024-03-23T03:08:55;27.35;;;11.60;;
84796;SDS011;75028;51.374;21.078;2024-03-23T03:11:21;25.60;;;11.07;;
84796;SDS011;75028;51.374;21.078;2024-03-23T03:13:47;26.23;;;11.70;;
84796;SDS011;75028;51.374;21.078;2024-03-23T03:16:13;29.00;;;11.55;;
84796;SDS011;75028;51.374;21.078;2024-03-23T03:18:39;25.90;;;11.45;;
84796;SDS011;75028;51.374;21.078;2024-03-23T03:21:09;23.90;;;11.38;;
84796;SDS011;75028;51.374;21.078;2024-03-23T03:23:37;22.33;;;11.02;;
84796;SDS011;75028;51.374;21.078;2024-03-23T03:26:04;27.25;;;11.77;;
84796;SDS011;75028;51.374;21.078;2024-03-23T03:28:31;24.48;;;11.43;;
84796;SDS011;75028;51.374;21.078;2024-03-23T03:30:58;23.35;;;10.23;;
84796;SDS011;75028;51.374;21.078;2024-03-23T03:33:25;22.35;;;11.35;;
84796;SDS011;75028;51.374;21.078;2024-03-23T03:35:52;22.05;;;11.07;;
84796;SDS011;75028;51.374;21.078;2024-03-23T03:38:18;25.50;;;10.90;;
84796;SDS011;75028;51.374;21.078;2024-03-23T03:40:45;24.55;;;11.10;;
84796;SDS011;75028;51.374;21.078;2024-03-23T03:43:11;24.95;;;10.88;;
84796;SDS011;75028;51.374;21.078;2024-03-23T03:45:37;27.52;;;11.70;;
84796;SDS011;75028;51.374;21.078;2024-03-23T03:48:03;28.50;;;10.90;;
84796;SDS011;75028;51.374;21.078;2024-03-23T03:50:30;26.45;;;10.80;;
84796;SDS011;75028;51.374;21.078;2024-03-23T03:52:56;26.27;;;11.05;;
84796;SDS011;75028;51.374;21.078;2024-03-23T03:55:22;27.85;;;11.50;;
84796;SDS011;75028;51.374;21.078;2024-03-23T03:57:48;23.80;;;11.40;;
84796;SDS011;75028;51.374;21.078;2024-03-23T04:00:14;29.83;;;12.15;;
84796;SDS011;75028;51.374;21.078;2024-03-23T04:02:41;30.85;;;12.10;;
84796;SDS011;75028;51.374;21.078;2024-03-23T04:07:33;27.77;;;10.85;;
84796;SDS011;75028;51.374;21.078;2024-03-23T04:09:59;24.30;;;11.07;;
84796;SDS011;75028;51.374;21.078;2024-03-23T04:12:25;30.52;;;11.45;;
84796;SDS011;75028;51.374;21.078;2024-03-23T04:14:51;31.38;;;12.57;;
84796;SDS011;75028;51.374;21.078;2024-03-23T04:17:17;28.38;;;13.20;;
84796;SDS011;75028;51.374;21.078;2024-03-23T04:19:44;34.53;;;13.70;;
84796;SDS011;75028;51.374;21.078;2024-03-23T04:22:10;32.65;;;13.18;;
84796;SDS011;75028;51.374;21.078;2024-03-23T04:27:02;31.67;;;13.10;;
84796;SDS011;75028;51.374;21.078;2024-03-23T04:29:28;33.13;;;12.90;;
84796;SDS011;75028;51.374;21.078;2024-03-23T04:31:54;29.98;;;12.90;;
84796;SDS011;75028;51.374;21.078;2024-03-23T04:34:21;32.15;;;13.18;;
84796;SDS011;75028;51.374;21.078;2024-03-23T04:36:48;31.60;;;12.65;;
84796;SDS011;75028;51.374;21.078;2024-03-23T04:39:14;33.80;;;12.18;;
84796;SDS011;75028;51.374;21.078;2024-03-23T04:41:40;29.30;;;11.77;;
84796;SDS011;75028;51.374;21.078;2024-03-23T04:44:06;31.00;;;12.32;;
84796;SDS011;75028;51.374;21.078;2024-03-23T04:46:32;33.47;;;13.32;;
84796;SDS011;75028;51.374;21.078;2024-03-23T04:51:24;34.90;;;13.88;;
84796;SDS011;75028;51.374;21.078;2024-03-23T04:53:51;32.05;;;13.50;;
84796;SDS011;75028;51.374;21.078;2024-03-23T04:56:17;32.22;;;13.57;;
84796;SDS011;75028;51.374;21.078;2024-03-23T04:58:43;35.78;;;14.35;;
84796;SDS011;75028;51.374;21.078;2024-03-23T05:01:09;27.08;;;13.35;;
84796;SDS011;75028;51.374;21.078;2024-03-23T05:03:36;36.00;;;13.13;;
84796;SDS011;75028;51.374;21.078;2024-03-23T05:06:02;34.40;;;14.27;;
84796;SDS011;75028;51.374;21.078;2024-03-23T05:08:28;29.40;;;12.82;;
84796;SDS011;75028;51.374;21.078;2024-03-23T05:10:54;35.00;;;14.30;;
84796;SDS011;75028;51.374;21.078;2024-03-23T05:13:20;35.50;;;14.07;;
84796;SDS011;75028;51.374;21.078;2024-03-23T05:15:53;29.40;;;13.07;;
84796;SDS011;75028;51.374;21.078;2024-03-23T05:18:20;30.25;;;13.02;;
84796;SDS011;75028;51.374;21.078;2024-03-23T05:20:46;32.63;;;14.20;;
84796;SDS011;75028;51.374;21.078;2024-03-23T05:23:12;39.20;;;13.82;;
84796;SDS011;75028;51.374;21.078;2024-03-23T05:25:38;35.35;;;15.27;;
84796;SDS011;75028;51.374;21.078;2024-03-23T05:28:04;33.80;;;13.88;;
84796;SDS011;75028;51.374;21.078;2024-03-23T05:30:30;31.33;;;15.07;;
84796;SDS011;75028;51.374;21.078;2024-03-23T05:32:57;42.05;;;16.13;;
84796;SDS011;75028;51.374;21.078;2024-03-23T05:35:23;39.50;;;15.82;;
84796;SDS011;75028;51.374;21.078;2024-03-23T05:37:49;32.03;;;14.45;;
84796;SDS011;75028;51.374;21.078;2024-03-23T05:40:15;34.22;;;13.15;;
84796;SDS011;75028;51.374;21.078;2024-03-23T05:45:07;37.58;;;13.45;;
84796;SDS011;75028;51.374;21.078;2024-03-23T05:47:33;34.17;;;13.13;;
84796;SDS011;75028;51.374;21.078;2024-03-23T05:49:59;33.22;;;13.02;;
84796;SDS011;75028;51.374;21.078;2024-03-23T05:52:27;28.95;;;13.07;;
84796;SDS011;75028;51.374;21.078;2024-03-23T05:54:53;32.25;;;12.88;;
84796;SDS011;75028;51.374;21.078;2024-03-23T05:57:19;32.95;;;13.30;;
84796;SDS011;75028;51.374;21.078;2024-03-23T05:59:45;29.67;;;12.07;;
84796;SDS011;75028;51.374;21.078;2024-03-23T06:02:11;31.75;;;13.50;;
84796;SDS011;75028;51.374;21.078;2024-03-23T06:04:37;34.15;;;13.07;;
84796;SDS011;75028;51.374;21.078;2024-03-23T06:09:31;29.48;;;12.57;;
84796;SDS011;75028;51.374;21.078;2024-03-23T06:11:58;33.55;;;13.75;;
84796;SDS011;75028;51.374;21.078;2024-03-23T06:14:23;27.30;;;12.23;;
84796;SDS011;75028;51.374;21.078;2024-03-23T06:16:50;26.25;;;11.65;;
84796;SDS011;75028;51.374;21.078;2024-03-23T06:19:16;29.13;;;11.57;;
84796;SDS011;75028;51.374;21.078;2024-03-23T06:21:45;29.85;;;12.60;;
84796;SDS011;75028;51.374;21.078;2024-03-23T06:24:14;25.85;;;12.23;;
84796;SDS011;75028;51.374;21.078;2024-03-23T06:26:40;26.92;;;11.40;;
84796;SDS011;75028;51.374;21.078;2024-03-23T06:29:06;28.52;;;12.00;;
84796;SDS011;75028;51.374;21.078;2024-03-23T06:31:32;29.50;;;11.52;;
84796;SDS011;75028;51.374;21.078;2024-03-23T06:33:58;31.98;;;12.55;;
84796;SDS011;75028;51.374;21.078;2024-03-23T06:38:50;31.00;;;12.25;;
84796;SDS011;75028;51.374;21.078;2024-03-23T06:41:17;27.40;;;12.25;;
84796;SDS011;75028;51.374;21.078;2024-03-23T06:43:43;30.98;;;13.00;;
84796;SDS011;75028;51.374;21.078;2024-03-23T06:46:09;30.88;;;12.38;;
84796;SDS011;75028;51.374;21.078;2024-03-23T06:48:35;29.88;;;12.60;;
84796;SDS011;75028;51.374;21.078;2024-03-23T06:51:01;31.33;;;11.50;;
84796;SDS011;75028;51.374;21.078;2024-03-23T06:53:27;23.77;;;11.68;;
84796;SDS011;75028;51.374;21.078;2024-03-23T06:55:53;28.85;;;13.18;;
84796;SDS011;75028;51.374;21.078;2024-03-23T06:58:20;27.70;;;12.38;;
84796;SDS011;75028;51.374;21.078;2024-03-23T07:00:46;29.50;;;12.68;;
84796;SDS011;75028;51.374;21.078;2024-03-23T07:03:12;28.40;;;13.75;;
84796;SDS011;75028;51.374;21.078;2024-03-23T07:05:39;30.20;;;12.35;;
84796;SDS011;75028;51.374;21.078;2024-03-23T07:08:05;31.02;;;13.10;;
84796;SDS011;75028;51.374;21.078;2024-03-23T07:10:31;33.63;;;13.05;;
84796;SDS011;75028;51.374;21.078;2024-03-23T07:12:57;34.45;;;12.77;;
84796;SDS011;75028;51.374;21.078;2024-03-23T07:15:23;31.73;;;12.52;;
84796;SDS011;75028;51.374;21.078;2024-03-23T07:17:49;30.38;;;13.00;;
84796;SDS011;75028;51.374;21.078;2024-03-23T07:20:15;31.88;;;13.35;;
84796;SDS011;75028;51.374;21.078;2024-03-23T07:22:41;28.25;;;12.10;;
84796;SDS011;75028;51.374;21.078;2024-03-23T07:27:33;28.15;;;13.35;;
84796;SDS011;75028;51.374;21.078;2024-03-23T07:32:26;30.30;;;14.57;;
84796;SDS011;75028;51.374;21.078;2024-03-23T07:34:53;37.80;;;14.23;;
84796;SDS011;75028;51.374;21.078;2024-03-23T07:37:18;31.42;;;12.80;;
84796;SDS011;75028;51.374;21.078;2024-03-23T07:39:45;32.42;;;12.93;;
84796;SDS011;75028;51.374;21.078;2024-03-23T07:42:11;29.10;;;12.50;;
84796;SDS011;75028;51.374;21.078;2024-03-23T07:44:37;34.08;;;13.57;;
84796;SDS011;75028;51.374;21.078;2024-03-23T07:47:03;34.58;;;13.27;;
84796;SDS011;75028;51.374;21.078;2024-03-23T07:49:29;35.03;;;14.32;;
84796;SDS011;75028;51.374;21.078;2024-03-23T07:51:55;33.28;;;14.90;;
84796;SDS011;75028;51.374;21.078;2024-03-23T07:54:21;31.65;;;14.88;;
84796;SDS011;75028;51.374;21.078;2024-03-23T07:56:47;30.20;;;14.18;;
84796;SDS011;75028;51.374;21.078;2024-03-23T08:01:39;35.40;;;13.80;;
84796;SDS011;75028;51.374;21.078;2024-03-23T08:04:05;31.33;;;13.98;;
84796;SDS011;75028;51.374;21.078;2024-03-23T08:06:31;32.60;;;13.63;;
84796;SDS011;75028;51.374;21.078;2024-03-23T08:08:57;29.60;;;13.43;;
84796;SDS011;75028;51.374;21.078;2024-03-23T08:11:27;30.17;;;12.77;;
84796;SDS011;75028;51.374;21.078;2024-03-23T08:13:54;29.27;;;13.13;;
84796;SDS011;75028;51.374;21.078;2024-03-23T08:16:21;33.22;;;13.40;;
84796;SDS011;75028;51.374;21.078;2024-03-23T08:18:48;28.13;;;13.20;;
84796;SDS011;75028;51.374;21.078;2024-03-23T08:21:16;34.35;;;15.32;;
84796;SDS011;75028;51.374;21.078;2024-03-23T08:23:42;31.13;;;13.52;;
84796;SDS011;75028;51.374;21.078;2024-03-23T08:26:12;29.17;;;12.73;;
84796;SDS011;75028;51.374;21.078;2024-03-23T08:28:41;30.75;;;13.15;;
84796;SDS011;75028;51.374;21.078;2024-03-23T08:31:07;28.08;;;12.30;;
84796;SDS011;75028;51.374;21.078;2024-03-23T08:33:35;31.70;;;12.80;;
84796;SDS011;75028;51.374;21.078;2024-03-23T08:36:02;32.85;;;13.18;;
84796;SDS011;75028;51.374;21.078;2024-03-23T08:38:30;27.23;;;12.43;;
84796;SDS011;75028;51.374;21.078;2024-03-23T08:41:00;25.38;;;13.18;;
84796;SDS011;75028;51.374;21.078;2024-03-23T08:43:28;31.25;;;13.82;;
84796;SDS011;75028;51.374;21.078;2024-03-23T08:48:38;30.20;;;13.02;;
84796;SDS011;75028;51.374;21.078;2024-03-23T08:51:06;31.67;;;12.65;;
84796;SDS011;75028;51.374;21.078;2024-03-23T08:53:34;25.48;;;11.85;;
84796;SDS011;75028;51.374;21.078;2024-03-23T08:56:00;33.45;;;14.85;;
84796;SDS011;75028;51.374;21.078;2024-03-23T08:58:28;27.15;;;12.82;;
84796;SDS011;75028;51.374;21.078;2024-03-23T09:01:00;26.95;;;12.45;;
84796;SDS011;75028;51.374;21.078;2024-03-23T09:03:29;28.90;;;13.90;;
84796;SDS011;75028;51.374;21.078;2024-03-23T09:05:56;29.42;;;13.25;;
84796;SDS011;75028;51.374;21.078;2024-03-23T09:08:24;32.42;;;15.20;;
84796;SDS011;75028;51.374;21.078;2024-03-23T09:10:50;33.92;;;14.45;;
84796;SDS011;75028;51.374;21.078;2024-03-23T09:15:48;32.38;;;15.48;;
84796;SDS011;75028;51.374;21.078;2024-03-23T09:18:16;37.78;;;16.88;;
84796;SDS011;75028;51.374;21.078;2024-03-23T09:23:09;31.77;;;15.40;;
84796;SDS011;75028;51.374;21.078;2024-03-23T09:25:38;31.40;;;14.98;;
84796;SDS011;75028;51.374;21.078;2024-03-23T09:28:05;31.80;;;15.20;;
84796;SDS011;75028;51.374;21.078;2024-03-23T09:30:34;33.63;;;15.05;;
84796;SDS011;75028;51.374;21.078;2024-03-23T09:33:02;30.50;;;15.02;;
84796;SDS011;75028;51.374;21.078;2024-03-23T09:35:28;27.75;;;13.60;;
84796;SDS011;75028;51.374;21.078;2024-03-23T09:40:20;29.77;;;15.05;;
84796;SDS011;75028;51.374;21.078;2024-03-23T09:42:50;27.52;;;12.55;;
84796;SDS011;75028;51.374;21.078;2024-03-23T09:45:17;27.85;;;13.93;;
84796;SDS011;75028;51.374;21.078;2024-03-23T09:47:48;22.25;;;12.50;;
84796;SDS011;75028;51.374;21.078;2024-03-23T09:50:14;28.20;;;13.65;;
84796;SDS011;75028;51.374;21.078;2024-03-23T09:52:41;24.55;;;13.13;;
84796;SDS011;75028;51.374;21.078;2024-03-23T09:55:08;24.33;;;13.27;;
84796;SDS011;75028;51.374;21.078;2024-03-23T09:57:34;24.13;;;12.82;;
84796;SDS011;75028;51.374;21.078;2024-03-23T10:00:01;23.95;;;11.77;;
84796;SDS011;75028;51.374;21.078;2024-03-23T10:02:28;25.35;;;12.25;;
84796;SDS011;75028;51.374;21.078;2024-03-23T10:04:55;22.33;;;11.45;;
84796;SDS011;75028;51.374;21.078;2024-03-23T10:07:22;21.52;;;10.88;;
84796;SDS011;75028;51.374;21.078;2024-03-23T10:09:48;22.27;;;11.25;;
84796;SDS011;75028;51.374;21.078;2024-03-23T10:12:17;23.63;;;10.77;;
84796;SDS011;75028;51.374;21.078;2024-03-23T10:14:45;19.35;;;10.55;;
84796;SDS011;75028;51.374;21.078;2024-03-23T10:19:51;16.48;;;9.80;;
84796;SDS011;75028;51.374;21.078;2024-03-23T10:24:44;19.52;;;10.65;;
84796;SDS011;75028;51.374;21.078;2024-03-23T10:27:20;23.52;;;11.48;;
84796;SDS011;75028;51.374;21.078;2024-03-23T10:29:47;20.98;;;10.32;;
84796;SDS011;75028;51.374;21.078;2024-03-23T10:32:15;21.70;;;10.25;;
84796;SDS011;75028;51.374;21.078;2024-03-23T10:34:42;21.98;;;11.70;;
84796;SDS011;75028;51.374;21.078;2024-03-23T10:37:09;19.25;;;10.23;;
84796;SDS011;75028;51.374;21.078;2024-03-23T10:39:39;18.52;;;9.27;;
84796;SDS011;75028;51.374;21.078;2024-03-23T10:42:09;17.95;;;9.45;;
84796;SDS011;75028;51.374;21.078;2024-03-23T10:44:38;18.52;;;9.65;;
84796;SDS011;75028;51.374;21.078;2024-03-23T10:47:05;18.77;;;8.65;;
84796;SDS011;75028;51.374;21.078;2024-03-23T10:49:34;17.17;;;8.68;;
84796;SDS011;75028;51.374;21.078;2024-03-23T10:52:02;16.50;;;9.30;;
84796;SDS011;75028;51.374;21.078;2024-03-23T10:54:32;17.23;;;8.60;;
84796;SDS011;75028;51.374;21.078;2024-03-23T10:57:03;18.08;;;9.35;;
84796;SDS011;75028;51.374;21.078;2024-03-23T10:59:34;16.40;;;8.05;;
84796;SDS011;75028;51.374;21.078;2024-03-23T11:02:03;14.60;;;7.93;;
84796;SDS011;75028;51.374;21.078;2024-03-23T11:04:30;15.25;;;8.30;;
84796;SDS011;75028;51.374;21.078;2024-03-23T11:06:57;15.20;;;8.60;;
84796;SDS011;75028;51.374;21.078;2024-03-23T11:09:39;14.27;;;7.78;;
84796;SDS011;75028;51.374;21.078;2024-03-23T11:14:50;15.43;;;8.32;;
84796;SDS011;75028;51.374;21.078;2024-03-23T11:17:18;14.18;;;7.10;;
84796;SDS011;75028;51.374;21.078;2024-03-23T11:19:52;14.30;;;7.50;;
84796;SDS011;75028;51.374;21.078;2024-03-23T11:25:15;11.88;;;7.50;;
84796;SDS011;75028;51.374;21.078;2024-03-23T11:27:46;16.17;;;7.38;;
84796;SDS011;75028;51.374;21.078;2024-03-23T11:30:14;11.32;;;6.78;;
84796;SDS011;75028;51.374;21.078;2024-03-23T11:32:44;11.57;;;6.40;;
84796;SDS011;75028;51.374;21.078;2024-03-23T11:35:33;12.73;;;6.68;;
84796;SDS011;75028;51.374;21.078;2024-03-23T11:38:15;11.30;;;6.45;;
84796;SDS011;75028;51.374;21.078;2024-03-23T11:40:46;13.15;;;6.97;;
84796;SDS011;75028;51.374;21.078;2024-03-23T11:43:14;12.20;;;6.28;;
84796;SDS011;75028;51.374;21.078;2024-03-23T11:48:13;14.45;;;6.57;;
84796;SDS011;75028;51.374;21.078;2024-03-23T11:50:44;11.63;;;6.45;;
84796;SDS011;75028;51.374;21.078;2024-03-23T11:55:41;14.43;;;6.88;;
84796;SDS011;75028;51.374;21.078;2024-03-23T11:58:11;15.55;;;8.65;;
84796;SDS011;75028;51.374;21.078;2024-03-23T12:00:37;13.95;;;7.85;;
84796;SDS011;75028;51.374;21.078;2024-03-23T12:03:04;15.52;;;9.05;;
84796;SDS011;75028;51.374;21.078;2024-03-23T12:05:31;15.68;;;7.07;;
84796;SDS011;75028;51.374;21.078;2024-03-23T12:08:16;13.07;;;7.03;;
84796;SDS011;75028;51.374;21.078;2024-03-23T12:10:52;13.45;;;7.18;;
84796;SDS011;75028;51.374;21.078;2024-03-23T12:13:29;10.20;;;6.28;;
84796;SDS011;75028;51.374;21.078;2024-03-23T12:15:58;13.10;;;8.38;;
84796;SDS011;75028;51.374;21.078;2024-03-23T12:18:35;14.55;;;7.57;;
84796;SDS011;75028;51.374;21.078;2024-03-23T12:21:01;12.68;;;7.10;;
84796;SDS011;75028;51.374;21.078;2024-03-23T12:25:53;11.85;;;6.85;;
84796;SDS011;75028;51.374;21.078;2024-03-23T12:30:45;15.63;;;8.23;;
84796;SDS011;75028;51.374;21.078;2024-03-23T12:35:37;11.45;;;7.05;;
84796;SDS011;75028;51.374;21.078;2024-03-23T12:40:29;15.57;;;7.05;;
84796;SDS011;75028;51.374;21.078;2024-03-23T12:42:55;12.93;;;7.80;;
84796;SDS011;75028;51.374;21.078;2024-03-23T12:45:22;15.52;;;8.60;;
84796;SDS011;75028;51.374;21.078;2024-03-23T12:47:48;12.05;;;6.78;;
84796;SDS011;75028;51.374;21.078;2024-03-23T12:50:14;9.93;;;6.05;;
84796;SDS011;75028;51.374;21.078;2024-03-23T12:55:07;13.00;;;7.43;;
84796;SDS011;75028;51.374;21.078;2024-03-23T12:59:59;13.95;;;7.38;;
84796;SDS011;75028;51.374;21.078;2024-03-23T13:02:25;12.13;;;7.55;;
84796;SDS011;75028;51.374;21.078;2024-03-23T13:04:52;13.25;;;7.88;;
84796;SDS011;75028;51.374;21.078;2024-03-23T13:07:19;15.65;;;7.97;;
84796;SDS011;75028;51.374;21.078;2024-03-23T13:09:46;13.38;;;8.10;;
84796;SDS011;75028;51.374;21.078;2024-03-23T13:14:38;11.90;;;7.25;;
84796;SDS011;75028;51.374;21.078;2024-03-23T13:17:05;12.20;;;7.63;;
84796;SDS011;75028;51.374;21.078;2024-03-23T13:19:31;14.02;;;6.85;;
84796;SDS011;75028;51.374;21.078;2024-03-23T13:21:58;12.80;;;7.15;;
84796;SDS011;75028;51.374;21.078;2024-03-23T13:24:24;14.65;;;7.90;;
84796;SDS011;75028;51.374;21.078;2024-03-23T13:26:50;11.73;;;7.50;;
84796;SDS011;75028;51.374;21.078;2024-03-23T13:29:18;15.82;;;7.95;;
84796;SDS011;75028;51.374;21.078;2024-03-23T13:31:47;14.63;;;7.60;;
84796;SDS011;75028;51.374;21.078;2024-03-23T13:34:14;13.63;;;7.22;;
84796;SDS011;75028;51.374;21.078;2024-03-23T13:36:41;13.50;;;7.47;;
84796;SDS011;75028;51.374;21.078;2024-03-23T13:39:09;13.98;;;8.27;;
84796;SDS011;75028;51.374;21.078;2024-03-23T13:41:43;15.32;;;7.53;;
84796;SDS011;75028;51.374;21.078;2024-03-23T13:44:11;12.93;;;7.60;;
84796;SDS011;75028;51.374;21.078;2024-03-23T13:46:38;13.70;;;7.00;;
84796;SDS011;75028;51.374;21.078;2024-03-23T13:49:05;11.45;;;6.53;;
84796;SDS011;75028;51.374;21.078;2024-03-23T13:51:32;13.85;;;7.45;;
84796;SDS011;75028;51.374;21.078;2024-03-23T13:53:58;12.73;;;7.25;;
84796;SDS011;75028;51.374;21.078;2024-03-23T13:56:27;11.55;;;6.70;;
84796;SDS011;75028;51.374;21.078;2024-03-23T13:58:56;14.15;;;7.10;;
84796;SDS011;75028;51.374;21.078;2024-03-23T14:01:23;10.43;;;6.57;;
84796;SDS011;75028;51.374;21.078;2024-03-23T14:03:50;12.32;;;6.90;;
84796;SDS011;75028;51.374;21.078;2024-03-23T14:08:41;10.77;;;6.65;;
84796;SDS011;75028;51.374;21.078;2024-03-23T14:11:08;11.85;;;6.45;;
84796;SDS011;75028;51.374;21.078;2024-03-23T14:13:36;11.10;;;6.93;;
84796;SDS011;75028;51.374;21.078;2024-03-23T14:16:03;11.52;;;6.82;;
84796;SDS011;75028;51.374;21.078;2024-03-23T14:18:29;14.23;;;6.55;;
84796;SDS011;75028;51.374;21.078;2024-03-23T14:23:25;14.68;;;6.55;;
84796;SDS011;75028;51.374;21.078;2024-03-23T14:25:53;11.63;;;6.55;;
84796;SDS011;75028;51.374;21.078;2024-03-23T14:28:20;12.95;;;6.72;;
84796;SDS011;75028;51.374;21.078;2024-03-23T14:30:47;11.63;;;6.45;;
84796;SDS011;75028;51.374;21.078;2024-03-23T14:33:17;11.60;;;7.00;;
84796;SDS011;75028;51.374;21.078;2024-03-23T14:35:43;10.73;;;6.60;;
84796;SDS011;75028;51.374;21.078;2024-03-23T14:38:25;7.78;;;5.45;;
84796;SDS011;75028;51.374;21.078;2024-03-23T14:43:18;11.75;;;5.65;;
84796;SDS011;75028;51.374;21.078;2024-03-23T14:48:40;11.95;;;6.53;;
84796;SDS011;75028;51.374;21.078;2024-03-23T14:51:08;13.65;;;5.70;;
84796;SDS011;75028;51.374;21.078;2024-03-23T14:53:35;8.75;;;5.32;;
84796;SDS011;75028;51.374;21.078;2024-03-23T14:56:03;10.27;;;5.75;;
84796;SDS011;75028;51.374;21.078;2024-03-23T14:58:29;8.65;;;5.63;;
84796;SDS011;75028;51.374;21.078;2024-03-23T15:01:05;14.52;;;6.40;;
84796;SDS011;75028;51.374;21.078;2024-03-23T15:03:37;11.85;;;6.47;;
84796;SDS011;75028;51.374;21.078;2024-03-23T15:06:06;9.10;;;5.25;;
84796;SDS011;75028;51.374;21.078;2024-03-23T15:08:32;9.98;;;6.03;;
84796;SDS011;75028;51.374;21.078;2024-03-23T15:13:24;10.18;;;6.00;;
84796;SDS011;75028;51.374;21.078;2024-03-23T15:18:18;10.30;;;5.70;;
84796;SDS011;75028;51.374;21.078;2024-03-23T15:20:55;12.88;;;6.82;;
84796;SDS011;75028;51.374;21.078;2024-03-23T15:23:22;11.75;;;5.82;;
84796;SDS011;75028;51.374;21.078;2024-03-23T15:25:54;12.20;;;6.28;;
84796;SDS011;75028;51.374;21.078;2024-03-23T15:28:22;12.07;;;6.57;;
84796;SDS011;75028;51.374;21.078;2024-03-23T15:30:48;11.85;;;7.53;;
84796;SDS011;75028;51.374;21.078;2024-03-23T15:33:15;16.15;;;8.27;;
84796;SDS011;75028;51.374;21.078;2024-03-23T15:38:06;56.10;;;37.92;;
84796;SDS011;75028;51.374;21.078;2024-03-23T15:40:33;32.35;;;23.77;;
84796;SDS011;75028;51.374;21.078;2024-03-23T15:42:59;115.53;;;87.78;;
84796;SDS011;75028;51.374;21.078;2024-03-23T15:45:26;55.58;;;34.92;;
84796;SDS011;75028;51.374;21.078;2024-03-23T15:47:52;140.48;;;92.93;;
84796;SDS011;75028;51.374;21.078;2024-03-23T15:50:18;63.75;;;36.17;;
84796;SDS011;75028;51.374;21.078;2024-03-23T15:55:10;61.38;;;44.22;;
84796;SDS011;75028;51.374;21.078;2024-03-23T16:00:02;106.30;;;78.13;;
84796;SDS011;75028;51.374;21.078;2024-03-23T16:02:29;55.75;;;41.08;;
84796;SDS011;75028;51.374;21.078;2024-03-23T16:04:55;13.20;;;8.95;;
84796;SDS011;75028;51.374;21.078;2024-03-23T16:07:23;13.75;;;8.52;;
84796;SDS011;75028;51.374;21.078;2024-03-23T16:09:49;14.73;;;7.53;;
84796;SDS011;75028;51.374;21.078;2024-03-23T16:14:42;20.20;;;13.73;;
84796;SDS011;75028;51.374;21.078;2024-03-23T16:19:34;16.63;;;9.73;;
84796;SDS011;75028;51.374;21.078;2024-03-23T16:22:00;18.30;;;11.27;;
84796;SDS011;75028;51.374;21.078;2024-03-23T16:24:26;15.63;;;8.25;;
84796;SDS011;75028;51.374;21.078;2024-03-23T16:26:52;17.15;;;10.02;;
84796;SDS011;75028;51.374;21.078;2024-03-23T16:29:18;10.70;;;6.72;;
84796;SDS011;75028;51.374;21.078;2024-03-23T16:31:44;22.05;;;14.38;;
84796;SDS011;75028;51.374;21.078;2024-03-23T16:34:10;16.90;;;8.38;;
84796;SDS011;75028;51.374;21.078;2024-03-23T16:36:36;14.68;;;7.15;;
84796;SDS011;75028;51.374;21.078;2024-03-23T16:39:02;12.15;;;6.57;;
84796;SDS011;75028;51.374;21.078;2024-03-23T16:41:28;9.23;;;5.38;;
84796;SDS011;75028;51.374;21.078;2024-03-23T16:43:54;8.32;;;5.43;;
84796;SDS011;75028;51.374;21.078;2024-03-23T16:46:20;9.75;;;6.93;;
84796;SDS011;75028;51.374;21.078;2024-03-23T16:48:46;9.80;;;5.80;;
84796;SDS011;75028;51.374;21.078;2024-03-23T16:53:38;8.65;;;5.75;;